createdAt,value
2022-08-28T00:02:48.328Z,8.88
2022-08-28T00:07:50.986Z,8.23
2022-08-28T00:12:58.449Z,8.77
2022-08-28T00:18:01.145Z,9.07
2022-08-28T00:23:04.598Z,9.00
2022-08-28T00:28:10.071Z,8.43
2022-08-28T00:33:27.492Z,9.38
2022-08-28T00:38:31.130Z,8.30
2022-08-28T00:43:42.726Z,9.60
2022-08-28T00:48:45.200Z,9.30
2022-08-28T00:53:47.430Z,8.60
2022-08-28T00:58:52.321Z,8.27
2022-08-28T01:03:54.633Z,9.20
2022-08-28T01:08:57.373Z,9.48
2022-08-28T01:14:03.045Z,8.43
2022-08-28T01:19:13.493Z,8.90
2022-08-28T01:24:18.989Z,9.23
2022-08-28T01:29:21.433Z,8.70
2022-08-28T01:34:24.218Z,9.13
2022-08-28T01:39:27.649Z,8.82
2022-08-28T01:44:30.047Z,9.57
2022-08-28T01:49:32.322Z,9.30
2022-08-28T01:54:34.470Z,8.60
2022-08-28T01:59:38.454Z,9.82
2022-08-28T02:04:47.579Z,9.60
2022-08-28T02:09:50.640Z,9.88
2022-08-28T02:14:53.327Z,8.57
2022-08-28T02:19:55.715Z,9.40
2022-08-28T02:24:58.112Z,9.75
2022-08-28T02:30:00.530Z,10.18
2022-08-28T02:35:02.744Z,9.50
2022-08-28T02:40:05.760Z,9.85
2022-08-28T02:45:10.941Z,9.45
2022-08-28T02:50:16.952Z,10.95
2022-08-28T02:55:20.340Z,9.82
2022-08-28T03:00:25.602Z,10.45
2022-08-28T03:05:28.150Z,8.98
2022-08-28T03:10:31.005Z,8.88
2022-08-28T03:15:33.409Z,9.70
2022-08-28T03:20:35.890Z,9.50
2022-08-28T03:25:39.523Z,9.80
2022-08-28T03:30:41.716Z,9.85
2022-08-28T03:35:44.101Z,9.70
2022-08-28T03:40:47.908Z,10.38
2022-08-28T03:45:59.925Z,10.00
2022-08-28T03:51:07.599Z,10.50
2022-08-28T03:56:16.515Z,9.75
2022-08-28T04:01:20.485Z,11.45
2022-08-28T04:06:23.208Z,9.65
2022-08-28T04:11:25.546Z,10.07
2022-08-28T04:16:28.174Z,9.25
2022-08-28T04:21:30.664Z,9.43
2022-08-28T04:26:36.880Z,9.57
2022-08-28T04:31:39.720Z,9.80
2022-08-28T04:36:42.129Z,8.43
2022-08-28T04:41:44.289Z,9.13
2022-08-28T04:46:48.429Z,8.63
2022-08-28T04:51:55.380Z,8.75
2022-08-28T04:56:57.684Z,8.82
2022-08-28T05:01:59.988Z,8.48
2022-08-28T05:07:02.277Z,8.50
2022-08-28T05:12:06.067Z,8.75
2022-08-28T05:17:09.565Z,8.45
2022-08-28T05:22:11.974Z,9.00
2022-08-28T05:27:14.361Z,8.45
2022-08-28T05:32:17.058Z,7.85
2022-08-28T05:37:19.820Z,7.32
2022-08-28T05:42:22.859Z,7.05
2022-08-28T05:47:32.891Z,6.80
2022-08-28T05:52:37.074Z,6.60
2022-08-28T05:57:40.522Z,6.18
2022-08-28T06:02:42.810Z,5.95
2022-08-28T06:07:45.247Z,6.53
2022-08-28T06:12:47.395Z,5.47
2022-08-28T06:17:49.547Z,6.05
2022-08-28T06:22:51.821Z,6.85
2022-08-28T06:27:54.150Z,5.53
2022-08-28T06:32:56.670Z,5.90
2022-08-28T06:37:59.520Z,5.95
2022-08-28T06:43:01.629Z,6.10
2022-08-28T06:48:04.153Z,5.88
2022-08-28T06:53:09.323Z,6.18
2022-08-28T06:58:13.151Z,6.00
2022-08-28T07:03:15.657Z,5.82
2022-08-28T07:08:20.102Z,6.13
2022-08-28T07:13:23.171Z,6.63
2022-08-28T07:18:25.740Z,6.55
2022-08-28T07:23:29.360Z,5.80
2022-08-28T07:28:31.805Z,5.45
2022-08-28T07:33:34.221Z,5.88
2022-08-28T07:38:36.805Z,6.38
2022-08-28T07:43:57.611Z,6.57
2022-08-28T07:49:01.056Z,8.23
2022-08-28T07:54:04.204Z,6.82
2022-08-28T07:59:07.837Z,6.15
2022-08-28T08:04:14.349Z,6.22
2022-08-28T08:09:19.479Z,6.88
2022-08-28T08:14:21.873Z,5.72
2022-08-28T08:19:24.122Z,5.93
2022-08-28T08:24:28.657Z,5.97
2022-08-28T08:29:35.709Z,6.10
2022-08-28T08:34:42.403Z,5.30
2022-08-28T08:39:44.845Z,6.18
2022-08-28T08:44:48.643Z,5.30
2022-08-28T08:49:58.889Z,5.53
2022-08-28T08:55:23.386Z,4.82
2022-08-28T09:00:26.091Z,5.10
2022-08-28T09:05:41.797Z,4.90
2022-08-28T09:10:51.970Z,4.82
2022-08-28T09:15:54.438Z,5.75
2022-08-28T09:20:59.088Z,5.10
2022-08-28T09:26:04.733Z,4.85
2022-08-28T09:31:16.186Z,5.20
2022-08-28T09:36:32.913Z,5.53
2022-08-28T09:42:24.737Z,5.57
2022-08-28T09:47:46.992Z,4.95
2022-08-28T09:52:51.334Z,4.88
2022-08-28T09:57:54.982Z,5.07
2022-08-28T10:03:09.286Z,5.10
2022-08-28T10:08:23.694Z,6.07
2022-08-28T10:13:39.655Z,5.45
2022-08-28T10:18:46.361Z,5.80
2022-08-28T10:23:58.783Z,5.43
2022-08-28T10:29:25.540Z,5.78
2022-08-28T10:34:43.354Z,6.15
2022-08-28T10:40:00.907Z,5.22
2022-08-28T10:45:13.229Z,4.72
2022-08-28T10:50:21.708Z,5.43
2022-08-28T10:55:36.553Z,4.90
2022-08-28T11:00:43.426Z,4.65
2022-08-28T11:05:54.396Z,5.18
2022-08-28T11:10:59.812Z,8.75
2022-08-28T11:16:12.545Z,5.10
2022-08-28T11:21:44.503Z,4.43
2022-08-28T11:27:07.004Z,5.72
2022-08-28T11:32:50.690Z,4.75
2022-08-28T11:37:55.169Z,5.30
2022-08-28T11:43:16.425Z,4.60
2022-08-28T11:48:37.656Z,5.30
2022-08-28T11:54:03.993Z,4.47
2022-08-28T11:59:37.193Z,4.78
2022-08-28T12:04:43.425Z,4.68
2022-08-28T12:09:48.767Z,4.00
2022-08-28T12:15:07.807Z,4.60
2022-08-28T12:20:39.140Z,4.95
2022-08-28T12:25:44.552Z,5.00
2022-08-28T12:31:08.910Z,4.75
2022-08-28T12:36:18.738Z,5.00
2022-08-28T12:41:24.777Z,4.38
2022-08-28T12:46:36.512Z,12.88
2022-08-28T12:51:38.870Z,4.82
2022-08-28T12:56:41.113Z,4.53
2022-08-28T13:01:44.817Z,5.85
2022-08-28T13:06:47.419Z,4.38
2022-08-28T13:11:51.810Z,5.07
2022-08-28T13:16:54.110Z,5.15
2022-08-28T13:22:02.833Z,4.78
2022-08-28T13:27:13.236Z,4.37
2022-08-28T13:32:18.175Z,4.63
2022-08-28T13:37:44.065Z,5.00
2022-08-28T13:42:47.497Z,21.67
2022-08-28T13:47:49.809Z,9.07
2022-08-28T13:52:52.001Z,7.07
2022-08-28T13:57:55.278Z,5.28
2022-08-28T14:03:16.394Z,4.10
2022-08-28T14:08:18.681Z,4.78
2022-08-28T14:13:23.271Z,4.80
2022-08-28T14:18:26.594Z,7.75
2022-08-28T14:23:29.135Z,5.05
2022-08-28T14:28:31.356Z,4.20
2022-08-28T14:33:34.323Z,5.50
2022-08-28T14:39:06.041Z,4.78
2022-08-28T14:44:09.426Z,4.90
2022-08-28T14:49:13.995Z,5.47
2022-08-28T14:54:19.297Z,5.65
2022-08-28T14:59:26.524Z,5.00
2022-08-28T15:04:38.312Z,5.63
2022-08-28T15:09:42.509Z,5.18
2022-08-28T15:14:55.212Z,8.77
2022-08-28T15:20:00.742Z,5.82
2022-08-28T15:25:03.687Z,6.25
2022-08-28T15:30:06.823Z,5.45
2022-08-28T15:35:09.557Z,5.72
2022-08-28T15:40:30.306Z,5.00
2022-08-28T15:45:37.944Z,5.10
2022-08-28T15:50:41.876Z,5.32
2022-08-28T15:55:47.616Z,6.15
2022-08-28T16:00:50.459Z,7.63
2022-08-28T16:05:53.061Z,9.85
2022-08-28T16:10:55.984Z,19.83
2022-08-28T16:15:58.225Z,13.20
2022-08-28T16:21:04.702Z,11.68
2022-08-28T16:26:08.816Z,11.93
2022-08-28T16:35:56.448Z,10.85
2022-08-28T16:36:35.658Z,8.98
2022-08-28T16:41:39.338Z,6.50
2022-08-28T16:46:46.828Z,9.65
2022-08-28T16:51:49.779Z,7.55
2022-08-28T16:56:52.309Z,10.23
2022-08-28T17:01:54.876Z,6.63
2022-08-28T17:06:57.598Z,7.47
2022-08-28T17:12:00.315Z,7.00
2022-08-28T17:17:02.838Z,7.57
2022-08-28T17:22:23.451Z,6.90
2022-08-28T17:27:30.490Z,7.40
2022-08-28T17:32:33.083Z,8.30
2022-08-28T17:37:37.664Z,7.40
2022-08-28T17:42:40.054Z,7.05
2022-08-28T17:47:43.671Z,8.52
2022-08-28T17:52:46.219Z,8.63
2022-08-28T17:57:49.254Z,7.82
2022-08-28T18:02:52.697Z,8.60
2022-08-28T18:07:55.293Z,8.98
2022-08-28T18:12:57.977Z,8.02
2022-08-28T18:18:00.370Z,9.15
2022-08-28T18:23:03.435Z,8.68
2022-08-28T18:28:06.782Z,21.50
2022-08-28T18:33:10.277Z,20.58
2022-08-28T18:38:14.447Z,8.80
2022-08-28T18:43:20.547Z,8.55
2022-08-28T18:48:23.308Z,10.45
2022-08-28T18:53:25.887Z,9.13
2022-08-28T18:58:28.290Z,8.65
2022-08-28T19:03:31.107Z,7.18
2022-08-28T19:08:36.877Z,7.93
2022-08-28T19:13:43.961Z,7.93
2022-08-28T19:18:47.928Z,12.32
2022-08-28T19:23:55.980Z,10.38
2022-08-28T19:28:58.766Z,12.85
2022-08-28T19:34:01.259Z,12.98
2022-08-28T19:39:04.186Z,9.27
2022-08-28T19:44:07.103Z,13.60
2022-08-28T19:49:09.552Z,9.52
2022-08-28T19:54:14.509Z,8.52
2022-08-28T19:59:16.872Z,16.95
2022-08-28T20:04:19.563Z,7.60
2022-08-28T20:09:21.905Z,7.57
2022-08-28T20:14:24.120Z,7.78
2022-08-28T20:19:26.839Z,8.63
2022-08-28T20:24:29.952Z,9.43
2022-08-28T20:29:34.440Z,8.10
2022-08-28T20:34:38.646Z,8.15
2022-08-28T20:39:43.913Z,8.38
2022-08-28T20:44:46.095Z,8.10
2022-08-28T20:49:48.261Z,8.20
2022-08-28T20:54:50.569Z,7.60
2022-08-28T20:59:54.388Z,8.82
2022-08-28T21:04:59.330Z,8.25
2022-08-28T21:10:07.157Z,8.15
2022-08-28T21:15:13.080Z,9.48
2022-08-28T21:20:16.501Z,8.82
2022-08-28T21:25:21.088Z,8.25
2022-08-28T21:30:23.637Z,9.10
2022-08-28T21:35:32.121Z,7.85
2022-08-28T21:40:35.859Z,8.18
2022-08-28T21:45:38.194Z,8.15
2022-08-28T21:50:43.199Z,8.90
2022-08-28T21:55:53.330Z,8.52
2022-08-28T22:00:59.298Z,7.93
2022-08-28T22:06:01.714Z,7.80
2022-08-28T22:11:04.434Z,8.05
2022-08-28T22:16:07.684Z,8.63
2022-08-28T22:21:34.246Z,8.68
2022-08-28T22:26:36.606Z,8.70
2022-08-28T22:31:45.648Z,7.70
2022-08-28T22:36:48.673Z,8.00
2022-08-28T22:41:51.566Z,7.70
2022-08-28T22:46:53.779Z,8.25
2022-08-28T22:51:56.025Z,7.03
2022-08-28T22:56:58.613Z,7.32
2022-08-28T23:02:01.433Z,8.60
2022-08-28T23:07:05.077Z,8.63
2022-08-28T23:12:08.105Z,8.30
2022-08-28T23:17:10.539Z,7.97
2022-08-28T23:22:13.492Z,8.07
2022-08-28T23:27:35.791Z,7.97
2022-08-28T23:32:38.832Z,9.70
2022-08-28T23:37:45.519Z,8.07
2022-08-28T23:42:52.079Z,8.15
2022-08-28T23:47:54.451Z,8.50
2022-08-28T23:52:56.825Z,9.05
2022-08-28T23:57:59.682Z,8.43
